sensor_id;sensor_type;location;lat;lon;timestamp;P1;P2;P0
64627;PMS5003;59036;50.960;0.314;2022-12-18T00:01:43;43;40;
64627;PMS5003;59036;50.960;0.314;2022-12-18T00:04:14;48;45;
64627;PMS5003;59036;50.960;0.314;2022-12-18T00:06:46;43;40;
64627;PMS5003;59036;50.960;0.314;2022-12-18T00:09:13;45;42;
64627;PMS5003;59036;50.960;0.314;2022-12-18T00:11:41;47;40;
64627;PMS5003;59036;50.960;0.314;2022-12-18T00:14:09;43;37;
64627;PMS5003;59036;50.960;0.314;2022-12-18T00:16:38;37;32;
64627;PMS5003;59036;50.960;0.314;2022-12-18T00:19:05;43;36;
64627;PMS5003;59036;50.960;0.314;2022-12-18T00:21:33;41;38;
64627;PMS5003;59036;50.960;0.314;2022-12-18T00:24:00;39;33;
64627;PMS5003;59036;50.960;0.314;2022-12-18T00:26:29;43;37;
64627;PMS5003;59036;50.960;0.314;2022-12-18T00:28:58;36;31;
64627;PMS5003;59036;50.960;0.314;2022-12-18T00:31:27;45;37;
64627;PMS5003;59036;50.960;0.314;2022-12-18T00:33:54;41;37;
64627;PMS5003;59036;50.960;0.314;2022-12-18T00:36:22;34;32;
64627;PMS5003;59036;50.960;0.314;2022-12-18T00:38:52;42;39;
64627;PMS5003;59036;50.960;0.314;2022-12-18T00:41:20;40;37;
64627;PMS5003;59036;50.960;0.314;2022-12-18T00:43:48;37;32;
64627;PMS5003;59036;50.960;0.314;2022-12-18T00:46:15;39;33;
64627;PMS5003;59036;50.960;0.314;2022-12-18T00:48:42;37;33;
64627;PMS5003;59036;50.960;0.314;2022-12-18T00:51:09;40;37;
64627;PMS5003;59036;50.960;0.314;2022-12-18T00:53:36;51;43;
64627;PMS5003;59036;50.960;0.314;2022-12-18T00:56:04;45;38;
64627;PMS5003;59036;50.960;0.314;2022-12-18T00:58:36;37;35;
64627;PMS5003;59036;50.960;0.314;2022-12-18T01:01:03;46;41;
64627;PMS5003;59036;50.960;0.314;2022-12-18T01:03:31;38;32;
64627;PMS5003;59036;50.960;0.314;2022-12-18T01:05:58;38;34;
64627;PMS5003;59036;50.960;0.314;2022-12-18T01:08:25;35;33;
64627;PMS5003;59036;50.960;0.314;2022-12-18T01:10:52;38;36;
64627;PMS5003;59036;50.960;0.314;2022-12-18T01:13:19;41;36;
64627;PMS5003;59036;50.960;0.314;2022-12-18T01:15:47;42;37;
64627;PMS5003;59036;50.960;0.314;2022-12-18T01:18:14;37;31;
64627;PMS5003;59036;50.960;0.314;2022-12-18T01:20:41;37;29;
64627;PMS5003;59036;50.960;0.314;2022-12-18T01:23:09;43;36;
64627;PMS5003;59036;50.960;0.314;2022-12-18T01:25:36;41;36;
64627;PMS5003;59036;50.960;0.314;2022-12-18T01:28:04;38;37;
64627;PMS5003;59036;50.960;0.314;2022-12-18T01:30:31;32;31;
64627;PMS5003;59036;50.960;0.314;2022-12-18T01:32:58;34;30;
64627;PMS5003;59036;50.960;0.314;2022-12-18T01:35:25;37;35;
64627;PMS5003;59036;50.960;0.314;2022-12-18T01:37:53;36;30;
64627;PMS5003;59036;50.960;0.314;2022-12-18T01:40:20;32;28;
64627;PMS5003;59036;50.960;0.314;2022-12-18T01:42:49;32;31;
64627;PMS5003;59036;50.960;0.314;2022-12-18T01:45:22;35;31;
64627;PMS5003;59036;50.960;0.314;2022-12-18T01:47:52;40;32;
64627;PMS5003;59036;50.960;0.314;2022-12-18T01:50:22;34;31;
64627;PMS5003;59036;50.960;0.314;2022-12-18T01:52:54;31;29;
64627;PMS5003;59036;50.960;0.314;2022-12-18T01:55:29;38;32;
64627;PMS5003;59036;50.960;0.314;2022-12-18T01:58:02;33;30;
64627;PMS5003;59036;50.960;0.314;2022-12-18T02:00:29;32;30;
64627;PMS5003;59036;50.960;0.314;2022-12-18T02:02:57;26;24;
64627;PMS5003;59036;50.960;0.314;2022-12-18T02:05:26;36;31;
64627;PMS5003;59036;50.960;0.314;2022-12-18T02:08:07;32;29;
64627;PMS5003;59036;50.960;0.314;2022-12-18T02:10:40;35;30;
64627;PMS5003;59036;50.960;0.314;2022-12-18T02:13:14;38;29;
64627;PMS5003;59036;50.960;0.314;2022-12-18T02:15:48;30;28;
64627;PMS5003;59036;50.960;0.314;2022-12-18T02:18:26;33;31;
64627;PMS5003;59036;50.960;0.314;2022-12-18T02:20:59;31;26;
64627;PMS5003;59036;50.960;0.314;2022-12-18T02:23:37;26;25;
64627;PMS5003;59036;50.960;0.314;2022-12-18T02:26:15;29;26;
64627;PMS5003;59036;50.960;0.314;2022-12-18T02:28:46;29;27;
64627;PMS5003;59036;50.960;0.314;2022-12-18T02:31:19;31;29;
64627;PMS5003;59036;50.960;0.314;2022-12-18T02:33:50;31;26;
64627;PMS5003;59036;50.960;0.314;2022-12-18T02:36:20;30;27;
64627;PMS5003;59036;50.960;0.314;2022-12-18T02:38:49;30;29;
64627;PMS5003;59036;50.960;0.314;2022-12-18T02:41:18;36;32;
64627;PMS5003;59036;50.960;0.314;2022-12-18T02:43:48;32;30;
64627;PMS5003;59036;50.960;0.314;2022-12-18T02:46:24;32;26;
64627;PMS5003;59036;50.960;0.314;2022-12-18T02:48:59;35;31;
64627;PMS5003;59036;50.960;0.314;2022-12-18T02:51:34;33;31;
64627;PMS5003;59036;50.960;0.314;2022-12-18T02:54:08;27;26;
64627;PMS5003;59036;50.960;0.314;2022-12-18T02:56:41;36;32;
64627;PMS5003;59036;50.960;0.314;2022-12-18T02:59:13;31;27;
64627;PMS5003;59036;50.960;0.314;2022-12-18T03:01:48;31;27;
64627;PMS5003;59036;50.960;0.314;2022-12-18T03:04:19;26;24;
64627;PMS5003;59036;50.960;0.314;2022-12-18T03:06:53;33;29;
64627;PMS5003;59036;50.960;0.314;2022-12-18T03:09:24;32;30;
64627;PMS5003;59036;50.960;0.314;2022-12-18T03:11:59;29;27;
64627;PMS5003;59036;50.960;0.314;2022-12-18T03:14:31;36;32;
64627;PMS5003;59036;50.960;0.314;2022-12-18T03:17:03;33;26;
64627;PMS5003;59036;50.960;0.314;2022-12-18T03:19:40;34;32;
64627;PMS5003;59036;50.960;0.314;2022-12-18T03:22:09;31;24;
64627;PMS5003;59036;50.960;0.314;2022-12-18T03:24:36;32;31;
64627;PMS5003;59036;50.960;0.314;2022-12-18T03:27:04;31;29;
64627;PMS5003;59036;50.960;0.314;2022-12-18T03:29:35;38;32;
64627;PMS5003;59036;50.960;0.314;2022-12-18T03:32:09;30;27;
64627;PMS5003;59036;50.960;0.314;2022-12-18T03:34:39;43;35;
64627;PMS5003;59036;50.960;0.314;2022-12-18T03:37:13;32;28;
64627;PMS5003;59036;50.960;0.314;2022-12-18T03:39:40;34;30;
64627;PMS5003;59036;50.960;0.314;2022-12-18T03:42:08;37;32;
64627;PMS5003;59036;50.960;0.314;2022-12-18T03:44:42;27;26;
64627;PMS5003;59036;50.960;0.314;2022-12-18T03:47:20;32;29;
64627;PMS5003;59036;50.960;0.314;2022-12-18T03:49:55;27;26;
64627;PMS5003;59036;50.960;0.314;2022-12-18T03:52:28;37;30;
64627;PMS5003;59036;50.960;0.314;2022-12-18T03:55:01;37;31;
64627;PMS5003;59036;50.960;0.314;2022-12-18T03:57:31;33;31;
64627;PMS5003;59036;50.960;0.314;2022-12-18T04:00:00;34;30;
64627;PMS5003;59036;50.960;0.314;2022-12-18T04:02:30;32;31;
64627;PMS5003;59036;50.960;0.314;2022-12-18T04:05:00;33;30;
64627;PMS5003;59036;50.960;0.314;2022-12-18T04:07:31;33;28;
64627;PMS5003;59036;50.960;0.314;2022-12-18T04:09:59;35;32;
64627;PMS5003;59036;50.960;0.314;2022-12-18T04:12:29;38;32;
64627;PMS5003;59036;50.960;0.314;2022-12-18T04:14:56;36;31;
64627;PMS5003;59036;50.960;0.314;2022-12-18T04:17:24;36;35;
64627;PMS5003;59036;50.960;0.314;2022-12-18T04:19:51;33;29;
64627;PMS5003;59036;50.960;0.314;2022-12-18T04:22:18;39;28;
64627;PMS5003;59036;50.960;0.314;2022-12-18T04:24:45;38;33;
64627;PMS5003;59036;50.960;0.314;2022-12-18T04:27:13;38;35;
64627;PMS5003;59036;50.960;0.314;2022-12-18T04:29:40;30;29;
64627;PMS5003;59036;50.960;0.314;2022-12-18T04:32:07;38;35;
64627;PMS5003;59036;50.960;0.314;2022-12-18T04:34:34;30;29;
64627;PMS5003;59036;50.960;0.314;2022-12-18T04:37:01;33;31;
64627;PMS5003;59036;50.960;0.314;2022-12-18T04:39:28;37;35;
64627;PMS5003;59036;50.960;0.314;2022-12-18T04:41:55;44;38;
64627;PMS5003;59036;50.960;0.314;2022-12-18T04:44:22;35;29;
64627;PMS5003;59036;50.960;0.314;2022-12-18T04:46:49;37;34;
64627;PMS5003;59036;50.960;0.314;2022-12-18T04:49:17;36;36;
64627;PMS5003;59036;50.960;0.314;2022-12-18T04:51:44;40;34;
64627;PMS5003;59036;50.960;0.314;2022-12-18T04:54:11;37;32;
64627;PMS5003;59036;50.960;0.314;2022-12-18T04:56:38;36;36;
64627;PMS5003;59036;50.960;0.314;2022-12-18T04:59:05;32;31;
64627;PMS5003;59036;50.960;0.314;2022-12-18T05:01:33;33;31;
64627;PMS5003;59036;50.960;0.314;2022-12-18T05:04:00;37;36;
64627;PMS5003;59036;50.960;0.314;2022-12-18T05:06:27;49;43;
64627;PMS5003;59036;50.960;0.314;2022-12-18T05:08:55;39;33;
64627;PMS5003;59036;50.960;0.314;2022-12-18T05:11:22;44;37;
64627;PMS5003;59036;50.960;0.314;2022-12-18T05:13:50;38;36;
64627;PMS5003;59036;50.960;0.314;2022-12-18T05:16:17;40;38;
64627;PMS5003;59036;50.960;0.314;2022-12-18T05:18:43;41;39;
64627;PMS5003;59036;50.960;0.314;2022-12-18T05:21:10;42;41;
64627;PMS5003;59036;50.960;0.314;2022-12-18T05:23:37;38;37;
64627;PMS5003;59036;50.960;0.314;2022-12-18T05:26:05;44;41;
64627;PMS5003;59036;50.960;0.314;2022-12-18T05:28:33;42;38;
64627;PMS5003;59036;50.960;0.314;2022-12-18T05:31:03;42;37;
64627;PMS5003;59036;50.960;0.314;2022-12-18T05:33:31;38;36;
64627;PMS5003;59036;50.960;0.314;2022-12-18T05:36:00;39;35;
64627;PMS5003;59036;50.960;0.314;2022-12-18T05:38:29;58;47;
64627;PMS5003;59036;50.960;0.314;2022-12-18T05:40:58;54;43;
64627;PMS5003;59036;50.960;0.314;2022-12-18T05:43:26;48;42;
64627;PMS5003;59036;50.960;0.314;2022-12-18T05:45:54;50;42;
64627;PMS5003;59036;50.960;0.314;2022-12-18T05:48:22;44;42;
64627;PMS5003;59036;50.960;0.314;2022-12-18T05:50:49;44;39;
64627;PMS5003;59036;50.960;0.314;2022-12-18T05:53:18;48;42;
64627;PMS5003;59036;50.960;0.314;2022-12-18T05:55:46;49;44;
64627;PMS5003;59036;50.960;0.314;2022-12-18T05:58:13;47;41;
64627;PMS5003;59036;50.960;0.314;2022-12-18T06:00:42;43;41;
64627;PMS5003;59036;50.960;0.314;2022-12-18T06:03:11;43;41;
64627;PMS5003;59036;50.960;0.314;2022-12-18T06:05:40;45;42;
64627;PMS5003;59036;50.960;0.314;2022-12-18T06:08:09;44;43;
64627;PMS5003;59036;50.960;0.314;2022-12-18T06:10:36;42;39;
64627;PMS5003;59036;50.960;0.314;2022-12-18T06:13:05;47;42;
64627;PMS5003;59036;50.960;0.314;2022-12-18T06:15:32;50;43;
64627;PMS5003;59036;50.960;0.314;2022-12-18T06:18:02;54;43;
64627;PMS5003;59036;50.960;0.314;2022-12-18T06:20:29;48;43;
64627;PMS5003;59036;50.960;0.314;2022-12-18T06:22:56;48;42;
64627;PMS5003;59036;50.960;0.314;2022-12-18T06:25:24;51;46;
64627;PMS5003;59036;50.960;0.314;2022-12-18T06:27:51;47;43;
64627;PMS5003;59036;50.960;0.314;2022-12-18T06:30:18;50;45;
64627;PMS5003;59036;50.960;0.314;2022-12-18T06:32:47;42;39;
64627;PMS5003;59036;50.960;0.314;2022-12-18T06:35:15;54;48;
64627;PMS5003;59036;50.960;0.314;2022-12-18T06:37:42;56;50;
64627;PMS5003;59036;50.960;0.314;2022-12-18T06:40:10;44;37;
64627;PMS5003;59036;50.960;0.314;2022-12-18T06:42:37;51;45;
64627;PMS5003;59036;50.960;0.314;2022-12-18T06:45:04;62;56;
64627;PMS5003;59036;50.960;0.314;2022-12-18T06:47:32;50;45;
64627;PMS5003;59036;50.960;0.314;2022-12-18T06:50:00;54;50;
64627;PMS5003;59036;50.960;0.314;2022-12-18T06:52:27;54;46;
64627;PMS5003;59036;50.960;0.314;2022-12-18T06:54:54;49;44;
64627;PMS5003;59036;50.960;0.314;2022-12-18T06:57:21;48;44;
64627;PMS5003;59036;50.960;0.314;2022-12-18T06:59:48;48;44;
64627;PMS5003;59036;50.960;0.314;2022-12-18T07:02:16;56;44;
64627;PMS5003;59036;50.960;0.314;2022-12-18T07:04:43;50;47;
64627;PMS5003;59036;50.960;0.314;2022-12-18T07:07:10;52;44;
64627;PMS5003;59036;50.960;0.314;2022-12-18T07:09:37;52;46;
64627;PMS5003;59036;50.960;0.314;2022-12-18T07:12:05;48;43;
64627;PMS5003;59036;50.960;0.314;2022-12-18T07:14:32;47;44;
64627;PMS5003;59036;50.960;0.314;2022-12-18T07:16:59;48;45;
64627;PMS5003;59036;50.960;0.314;2022-12-18T07:19:26;51;43;
64627;PMS5003;59036;50.960;0.314;2022-12-18T07:21:53;46;42;
64627;PMS5003;59036;50.960;0.314;2022-12-18T07:24:20;48;45;
64627;PMS5003;59036;50.960;0.314;2022-12-18T07:26:48;53;46;
64627;PMS5003;59036;50.960;0.314;2022-12-18T07:29:15;47;42;
64627;PMS5003;59036;50.960;0.314;2022-12-18T07:31:42;47;44;
64627;PMS5003;59036;50.960;0.314;2022-12-18T07:34:10;46;40;
64627;PMS5003;59036;50.960;0.314;2022-12-18T07:36:37;46;39;
64627;PMS5003;59036;50.960;0.314;2022-12-18T07:39:04;45;40;
64627;PMS5003;59036;50.960;0.314;2022-12-18T07:41:32;55;47;
64627;PMS5003;59036;50.960;0.314;2022-12-18T07:44:00;47;39;
64627;PMS5003;59036;50.960;0.314;2022-12-18T07:46:26;45;41;
64627;PMS5003;59036;50.960;0.314;2022-12-18T07:48:53;46;42;
64627;PMS5003;59036;50.960;0.314;2022-12-18T07:51:20;50;46;
64627;PMS5003;59036;50.960;0.314;2022-12-18T07:53:48;49;44;
64627;PMS5003;59036;50.960;0.314;2022-12-18T07:56:15;46;42;
64627;PMS5003;59036;50.960;0.314;2022-12-18T07:58:42;38;35;
64627;PMS5003;59036;50.960;0.314;2022-12-18T08:01:10;42;38;
64627;PMS5003;59036;50.960;0.314;2022-12-18T08:03:39;44;40;
64627;PMS5003;59036;50.960;0.314;2022-12-18T08:06:07;42;40;
64627;PMS5003;59036;50.960;0.314;2022-12-18T08:08:35;46;44;
64627;PMS5003;59036;50.960;0.314;2022-12-18T08:11:03;40;37;
64627;PMS5003;59036;50.960;0.314;2022-12-18T08:13:31;41;36;
64627;PMS5003;59036;50.960;0.314;2022-12-18T08:15:58;37;35;
64627;PMS5003;59036;50.960;0.314;2022-12-18T08:18:27;39;36;
64627;PMS5003;59036;50.960;0.314;2022-12-18T08:20:55;41;38;
64627;PMS5003;59036;50.960;0.314;2022-12-18T08:23:22;32;31;
64627;PMS5003;59036;50.960;0.314;2022-12-18T08:25:49;40;37;
64627;PMS5003;59036;50.960;0.314;2022-12-18T08:28:17;35;35;
64627;PMS5003;59036;50.960;0.314;2022-12-18T08:30:44;37;35;
64627;PMS5003;59036;50.960;0.314;2022-12-18T08:33:11;34;31;
64627;PMS5003;59036;50.960;0.314;2022-12-18T08:35:38;32;30;
64627;PMS5003;59036;50.960;0.314;2022-12-18T08:38:05;31;28;
64627;PMS5003;59036;50.960;0.314;2022-12-18T08:40:32;41;34;
64627;PMS5003;59036;50.960;0.314;2022-12-18T08:43:00;34;34;
64627;PMS5003;59036;50.960;0.314;2022-12-18T08:45:27;35;32;
64627;PMS5003;59036;50.960;0.314;2022-12-18T08:47:54;42;38;
64627;PMS5003;59036;50.960;0.314;2022-12-18T08:50:21;42;37;
64627;PMS5003;59036;50.960;0.314;2022-12-18T08:52:48;42;38;
64627;PMS5003;59036;50.960;0.314;2022-12-18T08:55:15;38;37;
64627;PMS5003;59036;50.960;0.314;2022-12-18T08:57:42;40;36;
64627;PMS5003;59036;50.960;0.314;2022-12-18T09:00:10;41;38;
64627;PMS5003;59036;50.960;0.314;2022-12-18T09:02:38;39;37;
64627;PMS5003;59036;50.960;0.314;2022-12-18T09:05:05;44;37;
64627;PMS5003;59036;50.960;0.314;2022-12-18T09:07:32;44;39;
64627;PMS5003;59036;50.960;0.314;2022-12-18T09:09:59;49;44;
64627;PMS5003;59036;50.960;0.314;2022-12-18T09:12:26;48;43;
64627;PMS5003;59036;50.960;0.314;2022-12-18T09:14:53;49;43;
64627;PMS5003;59036;50.960;0.314;2022-12-18T09:17:20;43;41;
64627;PMS5003;59036;50.960;0.314;2022-12-18T09:19:48;45;43;
64627;PMS5003;59036;50.960;0.314;2022-12-18T09:22:15;51;48;
64627;PMS5003;59036;50.960;0.314;2022-12-18T09:24:42;47;42;
64627;PMS5003;59036;50.960;0.314;2022-12-18T09:27:09;50;47;
64627;PMS5003;59036;50.960;0.314;2022-12-18T09:29:36;54;49;
64627;PMS5003;59036;50.960;0.314;2022-12-18T09:32:04;49;45;
64627;PMS5003;59036;50.960;0.314;2022-12-18T09:34:31;56;52;
64627;PMS5003;59036;50.960;0.314;2022-12-18T09:36:59;48;46;
64627;PMS5003;59036;50.960;0.314;2022-12-18T09:39:26;46;45;
64627;PMS5003;59036;50.960;0.314;2022-12-18T09:41:54;55;54;
64627;PMS5003;59036;50.960;0.314;2022-12-18T09:44:24;55;50;
64627;PMS5003;59036;50.960;0.314;2022-12-18T09:47:10;49;46;
64627;PMS5003;59036;50.960;0.314;2022-12-18T09:49:42;60;57;
64627;PMS5003;59036;50.960;0.314;2022-12-18T09:52:12;58;51;
64627;PMS5003;59036;50.960;0.314;2022-12-18T09:54:46;60;51;
64627;PMS5003;59036;50.960;0.314;2022-12-18T09:57:20;54;51;
64627;PMS5003;59036;50.960;0.314;2022-12-18T09:59:51;66;54;
64627;PMS5003;59036;50.960;0.314;2022-12-18T10:02:23;66;59;
64627;PMS5003;59036;50.960;0.314;2022-12-18T10:04:59;64;57;
64627;PMS5003;59036;50.960;0.314;2022-12-18T10:07:33;61;58;
64627;PMS5003;59036;50.960;0.314;2022-12-18T10:10:13;65;61;
64627;PMS5003;59036;50.960;0.314;2022-12-18T10:12:49;59;57;
64627;PMS5003;59036;50.960;0.314;2022-12-18T10:15:28;58;54;
64627;PMS5003;59036;50.960;0.314;2022-12-18T10:18:03;67;62;
64627;PMS5003;59036;50.960;0.314;2022-12-18T10:20:46;61;57;
64627;PMS5003;59036;50.960;0.314;2022-12-18T10:23:19;63;56;
64627;PMS5003;59036;50.960;0.314;2022-12-18T10:25:53;67;57;
64627;PMS5003;59036;50.960;0.314;2022-12-18T10:28:26;59;56;
64627;PMS5003;59036;50.960;0.314;2022-12-18T10:30:55;61;56;
64627;PMS5003;59036;50.960;0.314;2022-12-18T10:33:23;63;57;
64627;PMS5003;59036;50.960;0.314;2022-12-18T10:35:55;68;61;
64627;PMS5003;59036;50.960;0.314;2022-12-18T10:38:23;69;61;
64627;PMS5003;59036;50.960;0.314;2022-12-18T10:40:53;58;55;
64627;PMS5003;59036;50.960;0.314;2022-12-18T10:43:23;63;59;
64627;PMS5003;59036;50.960;0.314;2022-12-18T10:46:24;60;54;
64627;PMS5003;59036;50.960;0.314;2022-12-18T10:48:53;66;56;
64627;PMS5003;59036;50.960;0.314;2022-12-18T10:51:22;65;60;
64627;PMS5003;59036;50.960;0.314;2022-12-18T10:53:52;64;57;
64627;PMS5003;59036;50.960;0.314;2022-12-18T10:56:22;62;55;
64627;PMS5003;59036;50.960;0.314;2022-12-18T10:58:56;62;52;
64627;PMS5003;59036;50.960;0.314;2022-12-18T11:01:26;52;48;
64627;PMS5003;59036;50.960;0.314;2022-12-18T11:04:02;59;52;
64627;PMS5003;59036;50.960;0.314;2022-12-18T11:06:35;61;56;
64627;PMS5003;59036;50.960;0.314;2022-12-18T11:09:21;57;52;
64627;PMS5003;59036;50.960;0.314;2022-12-18T11:11:50;63;60;
64627;PMS5003;59036;50.960;0.314;2022-12-18T11:14:20;61;56;
64627;PMS5003;59036;50.960;0.314;2022-12-18T11:16:50;63;58;
64627;PMS5003;59036;50.960;0.314;2022-12-18T11:19:21;57;55;
64627;PMS5003;59036;50.960;0.314;2022-12-18T11:21:55;56;53;
64627;PMS5003;59036;50.960;0.314;2022-12-18T11:24:24;60;55;
64627;PMS5003;59036;50.960;0.314;2022-12-18T11:26:55;55;54;
64627;PMS5003;59036;50.960;0.314;2022-12-18T11:29:23;57;54;
64627;PMS5003;59036;50.960;0.314;2022-12-18T11:32:08;59;51;
64627;PMS5003;59036;50.960;0.314;2022-12-18T11:35:04;64;57;
64627;PMS5003;59036;50.960;0.314;2022-12-18T11:37:42;59;51;
64627;PMS5003;59036;50.960;0.314;2022-12-18T11:40:14;56;51;
64627;PMS5003;59036;50.960;0.314;2022-12-18T11:42:45;62;56;
64627;PMS5003;59036;50.960;0.314;2022-12-18T11:45:22;59;55;
64627;PMS5003;59036;50.960;0.314;2022-12-18T11:47:55;58;55;
64627;PMS5003;59036;50.960;0.314;2022-12-18T11:50:28;64;59;
64627;PMS5003;59036;50.960;0.314;2022-12-18T11:53:00;68;56;
64627;PMS5003;59036;50.960;0.314;2022-12-18T11:55:30;67;62;
64627;PMS5003;59036;50.960;0.314;2022-12-18T11:58:05;66;63;
64627;PMS5003;59036;50.960;0.314;2022-12-18T12:00:42;71;62;
64627;PMS5003;59036;50.960;0.314;2022-12-18T12:03:19;63;54;
64627;PMS5003;59036;50.960;0.314;2022-12-18T12:05:58;55;51;
64627;PMS5003;59036;50.960;0.314;2022-12-18T12:08:36;69;64;
64627;PMS5003;59036;50.960;0.314;2022-12-18T12:11:12;66;62;
64627;PMS5003;59036;50.960;0.314;2022-12-18T12:14:00;68;62;
64627;PMS5003;59036;50.960;0.314;2022-12-18T12:16:44;64;58;
64627;PMS5003;59036;50.960;0.314;2022-12-18T12:19:22;73;63;
64627;PMS5003;59036;50.960;0.314;2022-12-18T12:22:00;73;66;
64627;PMS5003;59036;50.960;0.314;2022-12-18T12:24:38;62;57;
64627;PMS5003;59036;50.960;0.314;2022-12-18T12:27:17;71;63;
64627;PMS5003;59036;50.960;0.314;2022-12-18T12:29:58;74;67;
64627;PMS5003;59036;50.960;0.314;2022-12-18T12:32:36;68;63;
64627;PMS5003;59036;50.960;0.314;2022-12-18T12:35:17;68;63;
64627;PMS5003;59036;50.960;0.314;2022-12-18T12:37:56;67;63;
64627;PMS5003;59036;50.960;0.314;2022-12-18T12:40:34;67;64;
64627;PMS5003;59036;50.960;0.314;2022-12-18T12:43:10;74;65;
64627;PMS5003;59036;50.960;0.314;2022-12-18T12:45:49;64;61;
64627;PMS5003;59036;50.960;0.314;2022-12-18T12:48:23;64;62;
64627;PMS5003;59036;50.960;0.314;2022-12-18T12:51:02;76;64;
64627;PMS5003;59036;50.960;0.314;2022-12-18T12:53:35;69;61;
64627;PMS5003;59036;50.960;0.314;2022-12-18T12:56:04;61;58;
64627;PMS5003;59036;50.960;0.314;2022-12-18T12:58:36;63;60;
64627;PMS5003;59036;50.960;0.314;2022-12-18T13:01:13;70;64;
64627;PMS5003;59036;50.960;0.314;2022-12-18T13:03:53;69;60;
64627;PMS5003;59036;50.960;0.314;2022-12-18T13:06:32;66;63;
64627;PMS5003;59036;50.960;0.314;2022-12-18T13:09:07;68;61;
64627;PMS5003;59036;50.960;0.314;2022-12-18T13:11:35;62;56;
64627;PMS5003;59036;50.960;0.314;2022-12-18T13:14:04;68;63;
64627;PMS5003;59036;50.960;0.314;2022-12-18T13:16:46;56;52;
64627;PMS5003;59036;50.960;0.314;2022-12-18T13:19:19;65;58;
64627;PMS5003;59036;50.960;0.314;2022-12-18T13:21:52;60;57;
64627;PMS5003;59036;50.960;0.314;2022-12-18T13:24:23;63;56;
64627;PMS5003;59036;50.960;0.314;2022-12-18T13:26:52;66;56;
64627;PMS5003;59036;50.960;0.314;2022-12-18T13:29:51;64;56;
64627;PMS5003;59036;50.960;0.314;2022-12-18T13:32:20;64;56;
64627;PMS5003;59036;50.960;0.314;2022-12-18T13:34:49;70;61;
64627;PMS5003;59036;50.960;0.314;2022-12-18T13:38:16;77;61;
64627;PMS5003;59036;50.960;0.314;2022-12-18T13:40:53;71;52;
64627;PMS5003;59036;50.960;0.314;2022-12-18T13:43:23;68;57;
64627;PMS5003;59036;50.960;0.314;2022-12-18T13:45:59;60;53;
64627;PMS5003;59036;50.960;0.314;2022-12-18T13:48:30;67;56;
64627;PMS5003;59036;50.960;0.314;2022-12-18T13:51:01;59;54;
64627;PMS5003;59036;50.960;0.314;2022-12-18T13:53:36;52;46;
64627;PMS5003;59036;50.960;0.314;2022-12-18T13:56:08;66;57;
64627;PMS5003;59036;50.960;0.314;2022-12-18T13:58:36;69;60;
64627;PMS5003;59036;50.960;0.314;2022-12-18T14:01:03;65;54;
64627;PMS5003;59036;50.960;0.314;2022-12-18T14:03:35;52;50;
64627;PMS5003;59036;50.960;0.314;2022-12-18T14:06:03;60;56;
64627;PMS5003;59036;50.960;0.314;2022-12-18T14:08:36;76;64;
64627;PMS5003;59036;50.960;0.314;2022-12-18T14:11:05;64;52;
64627;PMS5003;59036;50.960;0.314;2022-12-18T14:13:43;75;61;
64627;PMS5003;59036;50.960;0.314;2022-12-18T14:16:13;68;57;
64627;PMS5003;59036;50.960;0.314;2022-12-18T14:18:44;75;63;
64627;PMS5003;59036;50.960;0.314;2022-12-18T14:21:20;65;60;
64627;PMS5003;59036;50.960;0.314;2022-12-18T14:24:02;66;55;
64627;PMS5003;59036;50.960;0.314;2022-12-18T14:26:32;61;56;
64627;PMS5003;59036;50.960;0.314;2022-12-18T14:29:00;73;58;
64627;PMS5003;59036;50.960;0.314;2022-12-18T14:31:44;61;54;
64627;PMS5003;59036;50.960;0.314;2022-12-18T14:34:14;78;59;
64627;PMS5003;59036;50.960;0.314;2022-12-18T14:36:51;56;49;
64627;PMS5003;59036;50.960;0.314;2022-12-18T14:39:19;79;59;
64627;PMS5003;59036;50.960;0.314;2022-12-18T14:41:48;82;66;
64627;PMS5003;59036;50.960;0.314;2022-12-18T14:44:15;69;54;
64627;PMS5003;59036;50.960;0.314;2022-12-18T14:46:43;80;65;
64627;PMS5003;59036;50.960;0.314;2022-12-18T14:49:19;68;53;
64627;PMS5003;59036;50.960;0.314;2022-12-18T14:51:52;66;52;
64627;PMS5003;59036;50.960;0.314;2022-12-18T14:54:21;64;54;
64627;PMS5003;59036;50.960;0.314;2022-12-18T14:56:51;81;63;
64627;PMS5003;59036;50.960;0.314;2022-12-18T14:59:24;71;54;
64627;PMS5003;59036;50.960;0.314;2022-12-18T15:01:57;67;53;
64627;PMS5003;59036;50.960;0.314;2022-12-18T15:04:28;74;56;
64627;PMS5003;59036;50.960;0.314;2022-12-18T15:07:07;77;54;
64627;PMS5003;59036;50.960;0.314;2022-12-18T15:09:39;69;55;
64627;PMS5003;59036;50.960;0.314;2022-12-18T15:12:19;71;58;
64627;PMS5003;59036;50.960;0.314;2022-12-18T15:14:52;79;60;
64627;PMS5003;59036;50.960;0.314;2022-12-18T15:17:20;76;66;
64627;PMS5003;59036;50.960;0.314;2022-12-18T15:19:50;77;56;
64627;PMS5003;59036;50.960;0.314;2022-12-18T15:22:21;114;69;
64627;PMS5003;59036;50.960;0.314;2022-12-18T15:24:52;83;67;
64627;PMS5003;59036;50.960;0.314;2022-12-18T15:27:22;96;70;
64627;PMS5003;59036;50.960;0.314;2022-12-18T15:29:59;81;65;
64627;PMS5003;59036;50.960;0.314;2022-12-18T15:32:28;89;69;
64627;PMS5003;59036;50.960;0.314;2022-12-18T15:35:02;95;64;
64627;PMS5003;59036;50.960;0.314;2022-12-18T15:37:39;95;70;
64627;PMS5003;59036;50.960;0.314;2022-12-18T15:40:07;123;75;
64627;PMS5003;59036;50.960;0.314;2022-12-18T15:40:12;115;71;
64627;PMS5003;59036;50.960;0.314;2022-12-18T15:42:41;100;66;
64627;PMS5003;59036;50.960;0.314;2022-12-18T15:45:11;97;64;
64627;PMS5003;59036;50.960;0.314;2022-12-18T15:47:38;90;65;
64627;PMS5003;59036;50.960;0.314;2022-12-18T15:50:06;81;58;
64627;PMS5003;59036;50.960;0.314;2022-12-18T15:52:35;83;59;
64627;PMS5003;59036;50.960;0.314;2022-12-18T15:55:09;102;71;
64627;PMS5003;59036;50.960;0.314;2022-12-18T15:57:38;98;67;
64627;PMS5003;59036;50.960;0.314;2022-12-18T16:00:05;83;65;
64627;PMS5003;59036;50.960;0.314;2022-12-18T16:02:38;90;63;
64627;PMS5003;59036;50.960;0.314;2022-12-18T16:05:05;85;63;
64627;PMS5003;59036;50.960;0.314;2022-12-18T16:07:40;96;71;
64627;PMS5003;59036;50.960;0.314;2022-12-18T16:10:07;98;72;
64627;PMS5003;59036;50.960;0.314;2022-12-18T16:12:37;95;65;
64627;PMS5003;59036;50.960;0.314;2022-12-18T16:15:05;75;58;
64627;PMS5003;59036;50.960;0.314;2022-12-18T16:17:34;94;61;
64627;PMS5003;59036;50.960;0.314;2022-12-18T16:20:01;85;60;
64627;PMS5003;59036;50.960;0.314;2022-12-18T16:22:29;77;60;
64627;PMS5003;59036;50.960;0.314;2022-12-18T16:24:57;89;59;
64627;PMS5003;59036;50.960;0.314;2022-12-18T16:27:24;76;56;
64627;PMS5003;59036;50.960;0.314;2022-12-18T16:29:52;81;64;
64627;PMS5003;59036;50.960;0.314;2022-12-18T16:32:20;84;65;
64627;PMS5003;59036;50.960;0.314;2022-12-18T16:34:49;85;61;
64627;PMS5003;59036;50.960;0.314;2022-12-18T16:37:17;69;58;